Time;durP1;ratioP1;P1;durP2;ratioP2;P2;SDS_P1;SDS_P2;PMS_P1;PMS_P2;Temp;Humidity;BMP_temperature;BMP_pressure;BME280_temperature;BME280_humidity;BME280_pressure;Samples;Min_cycle;Max_cycle;Signal;HPM_P1;HPM_P2
2024/03/17 00:01:02;;;;;;;12.02;1.40;;;;;;;3.18;100.00;102229.16;6124940;23;20017;-74
2024/03/17 00:03:28;;;;;;;17.38;1.88;;;;;;;3.14;100.00;102227.91;6099856;23;20162;-78
2024/03/17 00:05:57;;;;;;;;;;;;;;;3.11;100.00;102228.25;6150268;23;20076;-75
2024/03/17 00:08:23;;;;;;;8.30;1.77;;;;;;;3.07;100.00;102232.28;6123389;23;19912;-74
2024/03/17 00:10:55;;;;;;;12.98;1.92;;;;;;;3.04;100.00;102238.75;6125127;23;20032;-76
2024/03/17 00:13:23;;;;;;;20.25;2.85;;;;;;;3.02;100.00;102246.06;6142108;23;20017;-75
2024/03/17 00:16:09;;;;;;;20.63;2.60;;;;;;;3.00;100.00;102240.97;6128075;23;20017;-75
2024/03/17 00:18:38;;;;;;;12.98;2.13;;;;;;;3.00;100.00;102237.50;6094961;23;20027;-75
2024/03/17 00:21:05;;;;;;;16.17;2.30;;;;;;;3.00;100.00;102248.91;6122200;23;20087;-75
2024/03/17 00:23:33;;;;;;;14.25;2.20;;;;;;;2.96;100.00;102252.09;6121301;23;20017;-75
2024/03/17 00:25:58;;;;;;;15.07;2.10;;;;;;;2.90;100.00;102258.09;6147007;23;20060;-73
2024/03/17 00:28:24;;;;;;;9.77;1.88;;;;;;;2.85;100.00;102256.03;6145602;23;20009;-75
2024/03/17 00:30:50;;;;;;;8.25;1.70;;;;;;;2.82;100.00;102261.66;6122084;23;20047;-74
2024/03/17 00:33:19;;;;;;;17.25;2.40;;;;;;;2.78;100.00;102260.41;6172147;23;20013;-74
2024/03/17 00:35:45;;;;;;;10.73;2.25;;;;;;;2.75;100.00;102255.44;6145579;23;20063;-74
2024/03/17 00:38:10;;;;;;;15.73;2.30;;;;;;;2.76;100.00;102256.28;6169636;23;20498;-74
2024/03/17 00:40:37;;;;;;;20.75;3.08;;;;;;;2.74;100.00;102259.91;6174648;23;20009;-78
2024/03/17 00:43:03;;;;;;;17.15;2.90;;;;;;;2.72;100.00;102266.41;6147612;23;20119;-78
2024/03/17 00:45:29;;;;;;;17.50;1.80;;;;;;;2.69;100.00;102264.09;6149010;23;20443;-77
2024/03/17 00:47:55;;;;;;;7.70;1.23;;;;;;;2.65;100.00;102276.06;6099262;23;20021;-77
2024/03/17 00:50:20;;;;;;;10.75;1.80;;;;;;;2.62;100.00;102273.75;6146384;23;20119;-76
2024/03/17 00:52:47;;;;;;;11.38;1.75;;;;;;;2.59;100.00;102274.13;6173633;23;20009;-75
2024/03/17 00:55:14;;;;;;;9.63;1.30;;;;;;;2.56;100.00;102266.53;6146797;23;20024;-77
2024/03/17 00:57:40;;;;;;;10.07;2.15;;;;;;;2.55;100.00;102270.19;6119180;23;20009;-78
2024/03/17 01:00:11;;;;;;;12.05;2.33;;;;;;;2.54;100.00;102268.56;6147669;23;20017;-78
2024/03/17 01:02:37;;;;;;;7.70;1.60;;;;;;;2.54;100.00;102268.56;6122294;23;20613;-77
2024/03/17 01:05:05;;;;;;;8.48;1.77;;;;;;;2.54;100.00;102264.09;6148014;23;20016;-79
2024/03/17 01:07:34;;;;;;;12.15;2.15;;;;;;;2.55;100.00;102270.19;6147799;23;20032;-75
2024/03/17 01:10:00;;;;;;;8.95;1.52;;;;;;;2.57;100.00;102271.66;6147367;23;20021;-75
2024/03/17 01:12:26;;;;;;;6.25;1.40;;;;;;;2.60;100.00;102267.84;6171239;23;20020;-74
2024/03/17 01:14:52;;;;;;;6.10;1.70;;;;;;;2.58;100.00;102270.66;6121744;23;20052;-73
2024/03/17 01:17:19;;;;;;;11.60;2.05;;;;;;;2.60;100.00;102267.84;6122376;23;20103;-76
2024/03/17 01:19:45;;;;;;;13.73;2.15;;;;;;;2.64;100.00;102269.97;6147003;23;20020;-74
2024/03/17 01:22:10;;;;;;;8.85;1.88;;;;;;;2.65;100.00;102261.00;6121475;23;20017;-74
2024/03/17 01:24:37;;;;;;;7.13;1.83;;;;;;;2.69;100.00;102272.84;6173229;23;20033;-75
2024/03/17 01:27:03;;;;;;;16.42;2.70;;;;;;;2.75;100.00;102271.31;6146551;23;20019;-75
2024/03/17 01:29:28;;;;;;;10.82;1.90;;;;;;;2.77;100.00;102287.00;6123158;23;20092;-76
2024/03/17 01:31:55;;;;;;;12.07;2.53;;;;;;;2.79;100.00;102277.09;6146520;23;21958;-76
2024/03/17 01:34:21;;;;;;;16.83;2.15;;;;;;;2.82;100.00;102277.53;6173313;23;20023;-74
2024/03/17 01:36:47;;;;;;;14.48;2.35;;;;;;;2.84;100.00;102270.22;6121491;23;20091;-75
2024/03/17 01:39:13;;;;;;;12.18;1.65;;;;;;;2.86;100.00;102278.84;6175792;23;20036;-79
2024/03/17 01:41:39;;;;;;;12.40;2.30;;;;;;;2.91;100.00;102279.13;6123615;23;20059;-75
2024/03/17 01:44:05;;;;;;;13.10;2.03;;;;;;;2.91;100.00;102281.75;6122500;23;20029;-75
2024/03/17 01:46:30;;;;;;;12.93;2.33;;;;;;;2.93;100.00;102278.94;6122384;23;20029;-73
2024/03/17 01:48:57;;;;;;;11.25;2.03;;;;;;;2.96;100.00;102279.38;6146334;23;20479;-76
2024/03/17 01:51:23;;;;;;;7.82;2.10;;;;;;;2.98;100.00;102277.38;6147107;23;20017;-74
2024/03/17 01:53:49;;;;;;;11.95;2.58;;;;;;;3.01;100.00;102274.38;6145311;23;20071;-75
2024/03/17 01:56:16;;;;;;;11.27;2.33;;;;;;;3.03;100.00;102276.00;6146383;23;20032;-76
2024/03/17 01:58:45;;;;;;;13.07;2.65;;;;;;;3.03;100.00;102273.34;6119543;23;20016;-75
2024/03/17 02:01:14;;;;;;;12.68;2.00;;;;;;;3.01;100.00;102273.53;6122404;23;20027;-74
2024/03/17 02:03:41;;;;;;;13.27;2.35;;;;;;;2.99;100.00;102283.50;6146399;23;20020;-75
2024/03/17 02:06:09;;;;;;;20.73;2.47;;;;;;;2.97;100.00;102273.06;6147848;23;20023;-75
2024/03/17 02:08:52;;;;;;;10.02;2.17;;;;;;;2.94;100.00;102276.09;6146527;23;20020;-76
2024/03/17 02:11:28;;;;;;;12.50;2.08;;;;;;;2.91;100.00;102284.41;6173835;23;20578;-74
2024/03/17 02:13:55;;;;;;;6.07;2.40;;;;;;;2.89;100.00;102281.09;6121401;23;20023;-74
2024/03/17 02:16:21;;;;;;;;;;;;;;;2.87;100.00;102272.53;6123384;23;20016;-74
2024/03/17 02:18:47;;;;;;;9.65;2.35;;;;;;;2.86;100.00;102276.19;6146028;23;19919;-75
2024/03/17 02:21:14;;;;;;;10.25;2.55;;;;;;;2.85;100.00;102281.66;6147396;23;20593;-74
2024/03/17 02:23:41;;;;;;;6.63;2.00;;;;;;;2.81;100.00;102286.47;6121705;23;20021;-73
2024/03/17 02:26:07;;;;;;;10.38;2.30;;;;;;;2.79;100.00;102271.81;6147109;23;20044;-76
2024/03/17 02:28:44;;;;;;;10.77;2.28;;;;;;;2.76;100.00;102272.97;6146980;23;20099;-74
2024/03/17 02:31:13;;;;;;;10.00;2.22;;;;;;;2.72;100.00;102267.22;6123016;23;20534;-74
2024/03/17 02:33:38;;;;;;;11.85;2.50;;;;;;;2.69;100.00;102279.97;6122800;23;20017;-73
2024/03/17 02:36:09;;;;;;;12.98;2.45;;;;;;;2.65;100.00;102281.34;6146484;23;20017;-74
2024/03/17 02:41:20;;;;;;;9.63;2.30;;;;;;;2.61;100.00;102286.16;6173239;23;20569;-74
2024/03/17 02:43:47;;;;;;;8.85;2.60;;;;;;;2.62;100.00;102286.97;6171992;23;20084;-75
2024/03/17 02:46:13;;;;;;;17.95;2.95;;;;;;;2.63;100.00;102289.44;6121840;23;20016;-75
2024/03/17 02:48:44;;;;;;;;;;;;;;;2.64;100.00;102288.47;6146666;23;20017;-73
2024/03/17 02:51:12;;;;;;;8.00;2.22;;;;;;;2.64;100.00;102290.25;6122391;23;20630;-74
2024/03/17 02:53:39;;;;;;;15.15;3.58;;;;;;;2.62;100.00;102293.09;6146005;23;20020;-74
2024/03/17 02:56:06;;;;;;;11.82;2.63;;;;;;;2.61;100.00;102293.28;6146141;23;20025;-74
2024/03/17 02:58:36;;;;;;;11.07;2.22;;;;;;;2.60;100.00;102291.63;6145704;23;20498;-74
2024/03/17 03:01:02;;;;;;;7.90;2.42;;;;;;;2.56;100.00;102285.88;6144762;23;20514;-75
2024/03/17 03:03:28;;;;;;;6.07;2.55;;;;;;;2.54;100.00;102289.72;6096130;23;20021;-74
2024/03/17 03:05:56;;;;;;;12.48;3.00;;;;;;;2.50;100.00;102288.41;6146385;23;20429;-74
2024/03/17 03:08:23;;;;;;;12.13;2.47;;;;;;;2.45;100.00;102292.44;6144363;23;20041;-74
2024/03/17 03:10:48;;;;;;;14.00;3.40;;;;;;;2.43;100.00;102288.28;6145759;23;20657;-74
2024/03/17 03:13:14;;;;;;;13.05;3.50;;;;;;;2.39;100.00;102281.75;6120986;23;20015;-74
2024/03/17 03:15:40;;;;;;;8.55;2.92;;;;;;;2.37;100.00;102283.72;6173184;23;20017;-74
2024/03/17 03:18:06;;;;;;;12.77;3.08;;;;;;;2.30;100.00;102286.25;6144288;23;20088;-74
2024/03/17 03:20:31;;;;;;;11.88;3.35;;;;;;;2.26;100.00;102281.50;6121916;23;20013;-73
2024/03/17 03:22:57;;;;;;;12.85;3.17;;;;;;;2.21;100.00;102289.13;6120722;23;20025;-74
2024/03/17 03:25:22;;;;;;;10.52;3.53;;;;;;;2.16;100.00;102289.66;6121137;23;20013;-74
2024/03/17 03:27:49;;;;;;;6.68;3.30;;;;;;;2.14;100.00;102278.44;6120984;23;20051;-74
2024/03/17 03:30:15;;;;;;;8.43;2.80;;;;;;;2.12;100.00;102286.56;6121245;23;20027;-74
2024/03/17 03:32:42;;;;;;;11.15;2.80;;;;;;;2.07;100.00;102288.06;6170183;23;20025;-75
2024/03/17 03:35:09;;;;;;;8.02;2.65;;;;;;;2.05;100.00;102296.19;6144905;23;20012;-75
2024/03/17 03:37:34;;;;;;;14.20;3.35;;;;;;;2.00;100.00;102297.72;6121006;23;20023;-75
2024/03/17 03:40:00;;;;;;;8.70;2.60;;;;;;;1.98;100.00;102300.53;6172303;23;20112;-75
2024/03/17 03:42:26;;;;;;;12.27;2.75;;;;;;;1.94;100.00;102306.31;6145508;23;20435;-74
2024/03/17 03:44:51;;;;;;;9.50;3.05;;;;;;;1.91;100.00;102302.22;6121315;23;20017;-75
2024/03/17 03:47:17;;;;;;;13.70;3.17;;;;;;;1.89;100.00;102304.19;6171910;23;20416;-75
2024/03/17 03:49:45;;;;;;;11.77;3.05;;;;;;;1.86;100.00;102296.63;6173260;23;20013;-75
2024/03/17 03:52:11;;;;;;;11.13;2.70;;;;;;;1.84;100.00;102304.75;6171670;23;20012;-74
2024/03/17 03:54:37;;;;;;;8.27;2.38;;;;;;;1.82;100.00;102301.44;6145774;23;20017;-74
2024/03/17 03:57:03;;;;;;;11.65;3.30;;;;;;;1.78;100.00;102300.16;6145003;23;20462;-73
2024/03/17 03:59:29;;;;;;;12.13;2.40;;;;;;;1.76;100.00;102293.38;6118152;23;20013;-74
2024/03/17 04:01:54;;;;;;;11.15;3.63;;;;;;;1.71;100.00;102299.19;6092532;23;20076;-74
2024/03/17 04:04:21;;;;;;;8.38;2.47;;;;;;;1.68;100.00;102294.25;6118325;23;20017;-75
2024/03/17 04:06:46;;;;;;;9.60;2.30;;;;;;;1.66;100.00;102295.41;6091845;23;20358;-75
2024/03/17 04:09:12;;;;;;;5.97;2.25;;;;;;;1.65;100.00;102297.25;6143278;23;20040;-75
2024/03/17 04:11:38;;;;;;;9.40;2.45;;;;;;;1.63;100.00;102300.06;6117576;23;20104;-74
2024/03/17 04:14:04;;;;;;;9.82;3.03;;;;;;;1.58;100.00;102298.91;6093955;23;20022;-74
2024/03/17 04:16:31;;;;;;;6.35;2.40;;;;;;;1.57;100.00;102306.03;6169953;23;20021;-74
2024/03/17 04:18:57;;;;;;;9.32;2.80;;;;;;;1.56;100.00;102295.63;6144806;23;20020;-75
2024/03/17 04:21:24;;;;;;;10.43;2.25;;;;;;;1.53;100.00;102301.25;6073918;23;20026;-75
2024/03/17 04:23:49;;;;;;;10.27;2.33;;;;;;;1.53;100.00;102306.53;6146088;23;20017;-75
2024/03/17 04:26:15;;;;;;;7.18;2.58;;;;;;;1.55;100.00;102309.81;6170329;23;20129;-75
2024/03/17 04:28:41;;;;;;;12.77;2.60;;;;;;;1.55;100.00;102309.81;6120001;23;20451;-75
2024/03/17 04:31:07;;;;;;;10.05;2.65;;;;;;;1.53;100.00;102307.34;6146659;23;20021;-76
2024/03/17 04:33:33;;;;;;;13.20;2.83;;;;;;;1.58;100.00;102314.75;6146131;23;20447;-75
2024/03/17 04:36:00;;;;;;;14.70;2.63;;;;;;;1.59;100.00;102311.94;6120524;23;20021;-75
2024/03/17 04:38:26;;;;;;;;;;;;;;;1.63;100.00;102317.72;6146086;23;20009;-75
2024/03/17 04:41:03;;;;;;;9.60;2.80;;;;;;;1.63;100.00;102307.97;6145364;23;19922;-75
2024/03/17 04:43:32;;;;;;;10.32;3.00;;;;;;;1.67;100.00;102311.09;6144652;23;20017;-74
2024/03/17 04:46:04;;;;;;;10.75;3.53;;;;;;;1.69;100.00;102306.44;6170153;23;20016;-75
2024/03/17 04:48:30;;;;;;;8.63;2.15;;;;;;;1.71;100.00;102299.19;6121167;23;20010;-75
2024/03/17 04:50:56;;;;;;;9.27;3.10;;;;;;;1.75;100.00;102305.75;6153302;23;20022;-77
2024/03/17 04:53:22;;;;;;;14.38;2.92;;;;;;;1.76;100.00;102310.06;6126710;23;20229;-76
2024/03/17 04:55:47;;;;;;;13.15;2.92;;;;;;;1.79;100.00;102320.28;6152864;23;20024;-75
2024/03/17 04:58:13;;;;;;;9.50;2.90;;;;;;;1.81;100.00;102320.91;6127367;23;20024;-77
2024/03/17 05:00:39;;;;;;;16.08;3.67;;;;;;;1.83;100.00;102318.94;6153843;23;20071;-77
2024/03/17 05:03:04;;;;;;;11.35;3.17;;;;;;;1.86;100.00;102321.22;6156258;23;20073;-74
2024/03/17 05:05:30;;;;;;;14.48;2.75;;;;;;;1.88;100.00;102321.03;6132850;23;20044;-76
2024/03/17 05:07:55;;;;;;;14.45;2.97;;;;;;;1.94;100.00;102327.47;6107594;23;20017;-77
2024/03/17 05:10:21;;;;;;;12.20;2.55;;;;;;;1.94;100.00;102330.09;6184345;23;20406;-77
2024/03/17 05:12:47;;;;;;;9.70;2.40;;;;;;;1.94;100.00;102330.09;6181742;23;20024;-74
2024/03/17 05:15:13;;;;;;;13.00;2.70;;;;;;;1.94;100.00;102330.94;6156961;23;20060;-75
2024/03/17 05:17:39;;;;;;;13.60;2.47;;;;;;;1.95;100.00;102340.50;6132688;23;20016;-74
2024/03/17 05:20:07;;;;;;;10.77;3.15;;;;;;;1.96;100.00;102338.66;6157178;23;20087;-76
2024/03/17 05:22:33;;;;;;;9.07;2.13;;;;;;;1.99;100.00;102348.91;6132530;23;20104;-75
2024/03/17 05:24:59;;;;;;;10.30;2.50;;;;;;;1.99;100.00;102346.28;6131220;23;20463;-73
2024/03/17 05:27:24;;;;;;;13.35;3.40;;;;;;;2.03;100.00;102344.91;6156219;23;20013;-75
2024/03/17 05:29:51;;;;;;;10.73;3.08;;;;;;;2.05;100.00;102349.03;6157333;23;20522;-76
2024/03/17 05:32:16;;;;;;;14.82;3.17;;;;;;;2.08;100.00;102350.50;6131912;23;20036;-75
2024/03/17 05:34:43;;;;;;;9.35;2.80;;;;;;;2.09;100.00;102349.50;6134155;23;20037;-74
2024/03/17 05:37:08;;;;;;;12.98;3.13;;;;;;;2.09;100.00;102352.16;6155496;23;20013;-75
2024/03/17 05:39:34;;;;;;;11.98;2.90;;;;;;;2.05;100.00;102345.56;6132673;23;20020;-75
2024/03/17 05:41:59;;;;;;;12.40;3.55;;;;;;;2.03;100.00;102347.56;6156680;23;20013;-74
2024/03/17 05:44:25;;;;;;;14.45;3.50;;;;;;;2.02;100.00;102349.38;6107075;23;20019;-76
2024/03/17 05:46:53;;;;;;;13.98;2.97;;;;;;;1.98;100.00;102358.66;6132354;23;20027;-74
2024/03/17 05:49:21;;;;;;;10.07;2.70;;;;;;;1.96;100.00;102359.81;6156442;23;20025;-75
2024/03/17 05:51:46;;;;;;;11.32;2.38;;;;;;;1.94;100.00;102353.88;6107027;23;20072;-75
2024/03/17 05:54:14;;;;;;;13.38;2.75;;;;;;;1.91;100.00;102363.81;6106840;23;20129;-74
2024/03/17 05:56:40;;;;;;;10.80;3.50;;;;;;;1.90;100.00;102359.53;6131065;23;20016;-75
2024/03/17 05:59:05;;;;;;;8.43;2.58;;;;;;;1.88;100.00;102366.78;6181681;23;20012;-74
2024/03/17 06:01:31;;;;;;;12.88;2.53;;;;;;;1.87;100.00;102361.69;6155216;23;20016;-75
2024/03/17 06:03:57;;;;;;;12.55;3.00;;;;;;;1.88;100.00;102369.44;6130871;23;20040;-75
2024/03/17 06:06:22;;;;;;;9.63;2.35;;;;;;;1.88;100.00;102369.44;6154396;23;20024;-74
2024/03/17 06:08:49;;;;;;;8.20;2.53;;;;;;;1.86;100.00;102371.44;6154808;23;20009;-75
2024/03/17 06:11:14;;;;;;;13.55;2.72;;;;;;;1.88;100.00;102372.06;6129829;23;20017;-75
2024/03/17 06:13:40;;;;;;;7.90;2.10;;;;;;;1.88;100.00;102380.00;6154589;23;20099;-76
2024/03/17 06:16:06;;;;;;;10.05;3.00;;;;;;;1.88;100.00;102372.06;6129965;23;20074;-75
2024/03/17 06:18:32;;;;;;;15.25;3.40;;;;;;;1.90;100.00;102371.91;6155364;23;20070;-76
2024/03/17 06:21:00;;;;;;;12.77;2.80;;;;;;;1.91;100.00;102365.63;6154059;23;20450;-75
2024/03/17 06:23:29;;;;;;;11.45;2.88;;;;;;;1.96;100.00;102368.56;6130116;23;20020;-75
2024/03/17 06:25:55;;;;;;;16.10;2.75;;;;;;;1.98;100.00;102371.88;6153990;23;20748;-76
2024/03/17 06:28:21;;;;;;;10.27;2.53;;;;;;;2.01;100.00;102379.44;6178903;23;20056;-74
2024/03/17 06:31:03;;;;;;;9.10;2.80;;;;;;;2.08;100.00;102374.28;6154863;23;20024;-75
2024/03/17 06:33:30;;;;;;;11.63;2.30;;;;;;;2.19;100.00;102376.56;6128773;23;20016;-76
2024/03/17 06:35:56;;;;;;;8.63;2.47;;;;;;;2.25;100.00;102375.84;6104939;23;20017;-74
2024/03/17 06:38:22;;;;;;;9.48;3.20;;;;;;;2.34;100.00;102373.97;6154280;23;20005;-76
2024/03/17 06:40:50;;;;;;;13.02;3.00;;;;;;;2.43;100.00;102378.19;6154251;23;20759;-75
2024/03/17 06:43:16;;;;;;;7.25;2.80;;;;;;;2.52;100.00;102384.28;6128286;23;20466;-75
2024/03/17 06:45:42;;;;;;;11.35;3.28;;;;;;;2.65;100.00;102387.16;6153646;23;20012;-74
2024/03/17 06:48:07;;;;;;;16.38;4.40;;;;;;;2.75;100.00;102385.09;6079896;23;20017;-75
2024/03/17 06:50:33;;;;;;;13.40;3.50;;;;;;;2.82;100.00;102391.31;6102314;23;20147;-75
2024/03/17 06:52:59;;;;;;;16.65;3.13;;;;;;;2.91;100.00;102390.25;6103452;23;20036;-75
2024/03/17 06:55:25;;;;;;;16.02;3.40;;;;;;;3.01;100.00;102393.47;6153303;23;20036;-73
2024/03/17 06:57:51;;;;;;;17.13;3.88;;;;;;;3.12;100.00;102383.47;6153230;23;20016;-76
2024/03/17 07:00:17;;;;;;;15.93;4.03;;;;;;;3.22;100.00;102391.97;6147581;23;20096;-75
2024/03/17 07:02:43;;;;;;;;;;;;;;;3.40;100.00;102402.22;6100104;23;20017;-75
2024/03/17 07:05:16;;;;;;;20.30;4.22;;;;;;;3.52;100.00;102404.25;6121599;23;19912;-74
2024/03/17 07:07:42;;;;;;;;;;;;;;;3.64;100.00;102398.47;6098005;23;20383;-74
2024/03/17 07:10:08;;;;;;;9.80;4.28;;;;;;;3.71;100.00;102402.84;6146781;23;19956;-74
2024/03/17 07:12:34;;;;;;;14.85;3.80;;;;;;;3.79;100.00;102391.31;6147514;23;20017;-73
2024/03/17 07:15:00;;;;;;;18.45;4.72;;;;;;;3.88;100.00;102390.22;6121562;23;20142;-74
2024/03/17 07:17:26;;;;;;;17.90;4.15;;;;;;;3.93;100.00;102390.50;6121271;23;20013;-75
2024/03/17 07:19:52;;;;;;;20.42;4.22;;;;;;;4.05;100.00;102399.59;6148370;23;20013;-75
2024/03/17 07:22:17;;;;;;;13.80;3.88;;;;;;;4.18;100.00;102398.94;6144708;23;20437;-74
2024/03/17 07:24:44;;;;;;;13.32;4.05;;;;;;;4.30;100.00;102397.47;6122730;23;20014;-74
2024/03/17 07:27:13;;;;;;;13.05;3.97;;;;;;;4.44;100.00;102395.75;6121534;23;20013;-74
2024/03/17 07:29:39;;;;;;;13.52;3.70;;;;;;;4.49;100.00;102382.75;6097978;23;20017;-73
2024/03/17 07:32:05;;;;;;;14.45;3.03;;;;;;;4.52;100.00;102394.81;6146355;23;20028;-74
2024/03/17 07:34:33;;;;;;;12.32;2.85;;;;;;;4.56;100.00;102388.97;6122876;23;20024;-75
2024/03/17 07:37:03;;;;;;;11.55;3.42;;;;;;;4.65;100.00;102390.47;6122938;23;20028;-75
2024/03/17 07:39:32;;;;;;;11.27;2.67;;;;;;;4.75;100.00;102397.31;6122994;23;20097;-74
2024/03/17 07:42:02;;;;;;;10.70;2.38;;;;;;;4.83;100.00;102403.28;6098270;23;20072;-75
2024/03/17 07:44:33;;;;;;;12.90;2.80;;;;;;;4.86;100.00;102399.44;6121789;23;20013;-73
2024/03/17 07:47:03;;;;;;;12.13;3.80;;;;;;;4.85;100.00;102393.28;6146038;23;20476;-75
2024/03/17 07:49:30;;;;;;;14.25;2.40;;;;;;;4.91;100.00;102395.19;6149038;23;20013;-75
2024/03/17 07:51:57;;;;;;;12.82;2.50;;;;;;;5.04;100.00;102398.97;6123797;23;20026;-76
2024/03/17 07:54:26;;;;;;;8.10;2.25;;;;;;;5.13;100.00;102395.97;6146791;23;20013;-74
2024/03/17 07:56:52;;;;;;;11.45;2.20;;;;;;;5.25;100.00;102398.94;6147945;23;20091;-75
2024/03/17 07:59:17;;;;;;;11.85;3.25;;;;;;;5.34;100.00;102397.75;6151113;23;20382;-75
2024/03/17 08:01:44;;;;;;;9.35;2.38;;;;;;;5.35;100.00;102403.88;6154329;23;20032;-76
2024/03/17 08:04:11;;;;;;;9.85;2.08;;;;;;;5.36;100.00;102394.94;6153586;23;20203;-76
2024/03/17 08:06:38;;;;;;;8.63;1.77;;;;;;;5.36;100.00;102400.25;6180516;23;20012;-76
2024/03/17 08:09:04;;;;;;;8.95;2.05;;;;;;;5.42;100.00;102394.97;6103642;23;20095;-76
2024/03/17 08:11:30;;;;;;;12.43;1.83;;;;;;;5.47;100.00;102391.72;6179622;23;20064;-75
2024/03/17 08:13:56;;;;;;;6.30;1.45;;;;;;;5.53;100.00;102387.44;6152898;23;20091;-76
2024/03/17 08:16:22;;;;;;;7.47;1.63;;;;;;;5.60;100.00;102389.13;6152474;23;20012;-77
2024/03/17 08:18:47;;;;;;;14.50;1.77;;;;;;;5.67;100.00;102386.50;6129028;23;20020;-76
2024/03/17 08:21:15;;;;;;;10.40;2.10;;;;;;;5.73;100.00;102383.88;6152952;23;20075;-77
2024/03/17 08:23:46;;;;;;;11.35;1.70;;;;;;;5.75;100.00;102389.81;6128560;23;20052;-74
2024/03/17 08:26:14;;;;;;;10.52;2.00;;;;;;;5.85;100.00;102389.47;6103107;23;20521;-74
2024/03/17 08:28:39;;;;;;;8.82;1.77;;;;;;;5.92;100.00;102389.53;6103123;23;20021;-78
2024/03/17 08:31:06;;;;;;;8.45;1.40;;;;;;;6.05;100.00;102391.41;6152449;23;20102;-74
2024/03/17 08:33:33;;;;;;;6.78;1.67;;;;;;;6.13;100.00;102381.41;6127382;23;20012;-74
2024/03/17 08:36:00;;;;;;;9.70;1.50;;;;;;;6.22;100.00;102387.38;6153006;23;20088;-74
2024/03/17 08:38:27;;;;;;;5.18;1.23;;;;;;;6.24;100.00;102388.81;6177197;23;20009;-74
2024/03/17 08:40:55;;;;;;;7.38;1.08;;;;;;;6.20;100.00;102387.56;6128671;23;20075;-75
2024/03/17 08:43:21;;;;;;;6.43;1.48;;;;;;;6.16;100.00;102390.81;6127524;23;20051;-75
2024/03/17 08:46:03;;;;;;;10.00;1.55;;;;;;;6.27;100.00;102393.72;6102913;23;20363;-74
2024/03/17 08:48:32;;;;;;;9.27;1.70;;;;;;;6.15;100.00;102395.31;6176120;23;20155;-76
2024/03/17 08:50:58;;;;;;;8.63;1.17;;;;;;;6.17;100.00;102393.31;6125852;23;20027;-76
2024/03/17 08:53:25;;;;;;;7.03;1.30;;;;;;;6.19;100.00;102390.44;6124582;23;20520;-76
2024/03/17 08:55:50;;;;;;;;;;;;;;;6.27;100.00;102387.59;6151451;23;20017;-74
2024/03/17 08:58:17;;;;;;;9.40;1.73;;;;;;;6.34;100.00;102392.94;6125666;23;19922;-77
2024/03/17 09:00:43;;;;;;;5.03;1.48;;;;;;;6.40;100.00;102381.50;6128589;23;20020;-75
2024/03/17 09:03:10;;;;;;;6.25;1.15;;;;;;;6.43;100.00;102378.41;6151574;23;20017;-75
2024/03/17 09:05:36;;;;;;;6.03;1.27;;;;;;;6.53;100.00;102378.84;6151223;23;20013;-74
2024/03/17 09:08:03;;;;;;;11.70;1.73;;;;;;;6.62;100.00;102380.28;6149082;23;20023;-73
2024/03/17 09:10:29;;;;;;;5.00;1.10;;;;;;;6.67;100.00;102383.16;6175739;23;20016;-72
2024/03/17 09:12:55;;;;;;;8.27;1.45;;;;;;;6.67;100.00;102372.53;6126180;23;20071;-76
2024/03/17 09:15:20;;;;;;;9.18;1.73;;;;;;;6.80;100.00;102377.84;6102485;23;20021;-76
2024/03/17 09:17:47;;;;;;;10.13;1.30;;;;;;;6.86;100.00;102383.41;6152097;23;20009;-76
2024/03/17 09:20:14;;;;;;;6.38;1.40;;;;;;;6.88;100.00;102378.69;6150617;23;20020;-76
2024/03/17 09:22:41;;;;;;;6.32;1.10;;;;;;;6.87;100.00;102377.03;6151896;23;20013;-76
2024/03/17 09:25:08;;;;;;;5.35;1.13;;;;;;;6.88;100.00;102378.69;6151591;23;20104;-73
2024/03/17 09:27:37;;;;;;;6.13;1.23;;;;;;;6.95;100.00;102379.50;6177579;23;20043;-72
2024/03/17 09:30:11;;;;;;;7.82;1.42;;;;;;;7.00;100.00;102371.72;6177746;23;20063;-72
2024/03/17 09:32:37;;;;;;;4.47;0.93;;;;;;;7.07;100.00;102372.53;6150991;23;20040;-73
2024/03/17 09:35:04;;;;;;;4.22;1.20;;;;;;;7.13;100.00;102393.03;6176771;23;20179;-73
2024/03/17 09:37:31;;;;;;;8.07;0.93;;;;;;;7.07;100.00;102389.31;6076583;23;20108;-75
2024/03/17 09:39:58;;;;;;;6.85;1.23;;;;;;;7.09;100.00;102384.59;6151682;23;20017;-73
2024/03/17 09:42:24;;;;;;;6.85;1.52;;;;;;;7.09;100.00;102391.78;6150877;23;20083;-73
2024/03/17 09:44:52;;;;;;;3.97;1.13;;;;;;;7.05;100.00;102390.56;6125890;23;20033;-73
2024/03/17 09:47:22;;;;;;;7.07;1.60;;;;;;;7.09;100.00;102391.78;6125185;23;20435;-74
2024/03/17 09:49:49;;;;;;;3.58;1.08;;;;;;;7.11;100.00;102389.72;6125975;23;20013;-76
2024/03/17 09:52:25;;;;;;;5.47;1.20;;;;;;;7.28;100.00;102384.78;6149819;23;20043;-74
2024/03/17 09:55:09;;;;;;;5.82;1.05;;;;;;;7.33;95.71;102390.34;6150003;23;20079;-73
2024/03/17 09:57:36;;;;;;;5.10;0.85;;;;;;;7.41;100.00;102397.28;6149918;23;20013;-77
2024/03/17 10:00:20;;;;;;;6.18;0.98;;;;;;;7.45;100.00;102395.81;6144928;23;20021;-74
2024/03/17 10:02:47;;;;;;;9.70;1.23;;;;;;;7.51;100.00;102397.66;6144733;23;20014;-73
2024/03/17 10:05:24;;;;;;;5.47;1.13;;;;;;;7.49;100.00;102397.06;6095628;23;20013;-76
2024/03/17 10:07:50;;;;;;;11.63;2.47;;;;;;;7.54;95.32;102405.25;6119996;23;20018;-76
2024/03/17 10:10:18;;;;;;;7.15;1.45;;;;;;;7.55;98.64;102406.91;6143489;23;20072;-76
2024/03/17 10:12:48;;;;;;;5.47;1.10;;;;;;;7.48;94.23;102400.75;6120227;23;20025;-76
2024/03/17 10:15:14;;;;;;;6.63;1.55;;;;;;;7.47;96.97;102407.94;6144624;23;20033;-76
2024/03/17 10:17:40;;;;;;;5.25;1.20;;;;;;;7.47;99.78;102405.28;6120673;23;20032;-75
2024/03/17 10:20:16;;;;;;;;;;;;;;;7.50;90.83;102401.34;6145300;23;20014;-74
2024/03/17 10:23:01;;;;;;;8.10;1.48;;;;;;;7.55;95.50;102404.22;6144688;23;19908;-76
2024/03/17 10:25:28;;;;;;;8.48;1.40;;;;;;;7.58;95.56;102406.47;6143901;23;20080;-76
2024/03/17 10:27:56;;;;;;;4.57;0.90;;;;;;;7.71;96.37;102410.94;6095248;23;20028;-75
2024/03/17 10:30:25;;;;;;;6.20;1.58;;;;;;;7.71;98.25;102400.28;6119601;23;20666;-73
2024/03/17 10:33:01;;;;;;;5.82;1.05;;;;;;;7.79;94.06;102413.38;6119566;23;20096;-74
2024/03/17 10:35:30;;;;;;;6.47;1.33;;;;;;;7.85;87.95;102410.69;6143722;23;20020;-73
2024/03/17 10:38:00;;;;;;;5.88;1.50;;;;;;;7.84;93.81;102406.38;6143808;23;20456;-74
2024/03/17 10:40:29;;;;;;;5.07;1.30;;;;;;;7.81;86.08;102406.81;6143567;23;20048;-74
2024/03/17 10:42:56;;;;;;;8.00;1.20;;;;;;;7.80;83.33;102399.84;6144372;23;20013;-75
2024/03/17 10:45:22;;;;;;;10.82;1.73;;;;;;;7.79;87.05;102398.22;6118259;23;20017;-74
2024/03/17 10:47:52;;;;;;;6.78;1.17;;;;;;;7.86;79.88;102399.00;6143564;23;20035;-74
2024/03/17 10:50:23;;;;;;;9.52;1.80;;;;;;;7.96;84.79;102400.41;6143558;23;20017;-73
2024/03/17 10:52:50;;;;;;;8.18;1.27;;;;;;;8.01;78.65;102409.41;6146324;23;20040;-73
2024/03/17 10:55:26;;;;;;;10.27;1.50;;;;;;;8.14;81.84;102397.88;6119205;23;20620;-75
2024/03/17 10:57:57;;;;;;;8.32;1.45;;;;;;;8.22;78.07;102400.28;6095293;23;20736;-74
2024/03/17 11:00:29;;;;;;;10.40;1.88;;;;;;;8.18;75.25;102396.41;6143842;23;20024;-74
2024/03/17 11:02:55;;;;;;;4.60;1.10;;;;;;;8.25;77.57;102397.19;6144072;23;20013;-74
2024/03/17 11:05:29;;;;;;;;;;;;;;;8.28;76.70;102395.94;6144707;23;20013;-73
2024/03/17 11:07:59;;;;;;;5.35;1.10;;;;;;;8.14;73.81;102395.19;6119459;23;19917;-74
2024/03/17 11:10:28;;;;;;;9.25;1.63;;;;;;;8.14;77.58;102390.69;6144352;23;20044;-75
2024/03/17 11:12:58;;;;;;;4.35;0.88;;;;;;;8.20;82.80;102389.00;6118892;23;20032;-73
2024/03/17 11:15:29;;;;;;;10.02;1.67;;;;;;;8.24;84.52;102395.53;6142888;23;20482;-74
2024/03/17 11:18:17;;;;;;;10.23;1.30;;;;;;;8.40;94.78;102396.91;6143936;23;20024;-75
2024/03/17 11:21:11;;;;;;;7.43;1.08;;;;;;;8.47;81.05;102400.41;6139380;23;20486;-74
2024/03/17 11:23:38;;;;;;;5.65;1.27;;;;;;;8.45;78.70;102403.25;6143317;23;20041;-76
2024/03/17 11:26:06;;;;;;;6.43;1.20;;;;;;;8.57;86.77;102410.59;6146441;23;20079;-74
2024/03/17 11:28:41;;;;;;;9.55;2.30;;;;;;;8.77;82.52;102405.94;6142015;23;20013;-75